Terminal Aerodrome Forecast
Issued by NWS

Home | Current Version | Previous Version | Graphics & Text | Print | Product List | Glossary On
Versions: 1 2 3 4 5 6 7 8 9 10 11 12 13 14 15 16 17
734
FTUS43 KGRB 180520
TAFAUW
TAF
KAUW 180520Z 1806/1906 11010KT P6SM SCT250 WS012/12040KT
     FM181000 11006KT P6SM BKN250
     FM181600 13011G18KT P6SM SKC
     FM190300 12008KT P6SM BKN250=

USA.gov is the U.S. government's official web portal to all federal, state and local government web resources and services.